Loftus, United Kingdom
Current Conditions -  °F | °C
As of 1:20 PM on Friday 31 Oct 2014 (Local Time) from EGNV Reporting Station
Haze Haze  
Wind Chill: 18°   Ceiling: Unl
Heat Index: 18°   Visibility: 3mi
Dew Point: 15°   Wind: 18mph
Humidity: 83%   Direction: 170°S
Pressure: 29.83"   Gusts: NA
Location:  54.56°N, 0.89°W
Report Text: EGNV 311320Z 17016KT 5000 HZ FEW018 18/15 Q1010
Loading
Personal Weather Stations






























Interactive Weather Map
Tropical Storm Tracking
New forecast layout! Learn more

10-Day Weather Forecast

Advertisements
Track Severe Weather on mobile